createdAt,value
2022-12-18T00:02:24.928Z,-2.27
2022-12-18T00:04:52.930Z,-2.29
2022-12-18T00:07:20.805Z,-2.33
2022-12-18T00:09:48.683Z,-2.35
2022-12-18T00:14:49.393Z,-2.43
2022-12-18T00:17:17.251Z,-2.49
2022-12-18T00:19:45.132Z,-2.47
2022-12-18T00:22:13.065Z,-2.42
2022-12-18T00:24:40.968Z,-2.35
2022-12-18T00:27:09.415Z,-2.34
2022-12-18T00:29:37.312Z,-2.32
2022-12-18T00:32:07.812Z,-2.27
2022-12-18T00:34:35.742Z,-2.22
2022-12-18T00:37:03.677Z,-2.22
2022-12-18T00:39:31.600Z,-2.18
2022-12-18T00:42:19.292Z,-2.12
2022-12-18T00:44:47.158Z,-2.05
2022-12-18T00:47:15.026Z,-2.03
2022-12-18T00:49:42.887Z,-2.06
2022-12-18T00:52:10.769Z,-2.07
2022-12-18T00:54:38.670Z,-2.10
2022-12-18T00:57:06.591Z,-2.12
2022-12-18T00:59:34.519Z,-2.17
2022-12-18T01:02:02.562Z,-2.32
2022-12-18T01:04:33.147Z,-2.38
2022-12-18T01:07:01.904Z,-2.40
2022-12-18T01:09:29.795Z,-2.36
2022-12-18T01:11:57.785Z,-2.28
2022-12-18T01:14:25.765Z,-2.19
2022-12-18T01:16:54.683Z,-2.14
2022-12-18T01:19:22.624Z,-2.22
2022-12-18T01:21:50.650Z,-2.22
2022-12-18T01:24:18.631Z,-2.19
2022-12-18T01:26:46.804Z,-2.16
2022-12-18T01:29:15.876Z,-2.20
2022-12-18T01:31:43.916Z,-2.20
2022-12-18T01:34:11.812Z,-2.16
2022-12-18T01:36:42.811Z,-2.17
2022-12-18T01:39:13.699Z,-2.17
2022-12-18T01:42:02.420Z,-2.12
2022-12-18T01:44:53.471Z,-2.12
2022-12-18T01:47:36.236Z,-2.11
2022-12-18T01:50:11.548Z,-2.10
2022-12-18T01:52:42.069Z,-2.11
2022-12-18T01:55:11.971Z,-2.12
2022-12-18T01:57:40.814Z,-2.11
2022-12-18T02:00:14.892Z,-2.08
2022-12-18T02:02:44.602Z,-2.07
2022-12-18T02:05:29.865Z,-2.08
2022-12-18T02:08:15.021Z,-2.08
2022-12-18T02:10:53.989Z,-2.07
2022-12-18T02:14:03.996Z,-2.06
2022-12-18T02:17:02.135Z,-2.17
2022-12-18T02:19:39.218Z,-2.24
2022-12-18T02:22:13.203Z,-2.41
2022-12-18T02:24:55.097Z,-2.58
2022-12-18T02:27:23.629Z,-2.62
2022-12-18T02:29:58.328Z,-2.62
2022-12-18T02:32:34.894Z,-2.72
2022-12-18T02:35:06.767Z,-2.76
2022-12-18T02:37:38.153Z,-2.79
2022-12-18T02:40:08.038Z,-2.80
2022-12-18T02:42:36.975Z,-2.88
2022-12-18T02:45:07.359Z,-2.95
2022-12-18T02:47:40.266Z,-3.04
2022-12-18T02:50:17.504Z,-3.09
2022-12-18T02:52:51.647Z,-3.07
2022-12-18T02:55:38.589Z,-3.08
2022-12-18T02:58:24.089Z,-3.11
2022-12-18T03:01:04.831Z,-3.05
2022-12-18T03:03:52.903Z,-3.01
2022-12-18T03:06:44.896Z,-2.97
2022-12-18T03:09:22.760Z,-2.99
2022-12-18T03:12:16.233Z,-2.94
2022-12-18T03:14:47.313Z,-2.85
2022-12-18T03:17:19.180Z,-2.79
2022-12-18T03:19:49.465Z,-2.76
2022-12-18T03:22:17.910Z,-2.74
2022-12-18T03:24:50.017Z,-2.73
2022-12-18T03:27:23.216Z,-2.72
2022-12-18T03:30:08.343Z,-2.71
2022-12-18T03:32:48.815Z,-2.70
2022-12-18T03:35:23.837Z,-2.67
2022-12-18T03:37:52.314Z,-2.70
2022-12-18T03:40:25.537Z,-2.73
2022-12-18T03:42:57.793Z,-2.73
2022-12-18T03:45:37.560Z,-2.73
2022-12-18T03:48:23.607Z,-2.72
2022-12-18T03:50:51.625Z,-2.71
2022-12-18T03:53:23.509Z,-2.72
2022-12-18T03:55:52.872Z,-2.69
2022-12-18T03:58:28.257Z,-2.63
2022-12-18T04:01:09.941Z,-2.57
2022-12-18T04:03:39.383Z,-2.55
2022-12-18T04:06:08.651Z,-2.56
2022-12-18T04:08:37.055Z,-2.61
2022-12-18T04:11:07.354Z,-2.61
2022-12-18T04:13:37.731Z,-2.63
2022-12-18T04:16:10.450Z,-2.60
2022-12-18T04:18:40.975Z,-2.57
2022-12-18T04:21:09.667Z,-2.55
2022-12-18T04:23:38.479Z,-2.56
2022-12-18T04:26:06.567Z,-2.57
2022-12-18T04:29:06.767Z,-2.58
2022-12-18T04:31:34.736Z,-2.58
2022-12-18T04:34:04.213Z,-2.59
2022-12-18T04:36:35.093Z,-2.59
2022-12-18T04:39:03.306Z,-2.55
2022-12-18T04:41:31.992Z,-2.46
2022-12-18T04:43:59.919Z,-2.42
2022-12-18T04:46:27.909Z,-2.46
2022-12-18T04:48:55.906Z,-2.59
2022-12-18T04:51:26.682Z,-2.72
2022-12-18T04:53:55.154Z,-2.75
2022-12-18T04:56:23.516Z,-2.73
2022-12-18T04:58:51.476Z,-2.66
2022-12-18T05:01:20.118Z,-2.64
2022-12-18T05:03:48.526Z,-2.72
2022-12-18T05:06:16.533Z,-2.76
2022-12-18T05:08:44.627Z,-2.76
2022-12-18T05:11:17.655Z,-2.76
2022-12-18T05:13:46.436Z,-2.74
2022-12-18T05:16:15.374Z,-2.78
2022-12-18T05:18:43.467Z,-2.81
2022-12-18T05:21:11.361Z,-2.86
2022-12-18T05:23:39.630Z,-2.87
2022-12-18T05:26:08.861Z,-2.87
2022-12-18T05:28:37.376Z,-2.88
2022-12-18T05:31:06.044Z,-2.86
2022-12-18T05:33:35.772Z,-2.86
2022-12-18T05:36:06.756Z,-2.91
2022-12-18T05:38:37.079Z,-3.03
2022-12-18T05:41:05.803Z,-3.16
2022-12-18T05:43:35.941Z,-3.27
2022-12-18T05:46:14.290Z,-3.36
2022-12-18T05:48:43.423Z,-3.46
2022-12-18T05:51:17.187Z,-3.56
2022-12-18T05:53:45.878Z,-3.65
2022-12-18T05:56:16.774Z,-3.71
2022-12-18T05:58:44.954Z,-3.77
2022-12-18T06:01:21.054Z,-3.82
2022-12-18T06:03:49.631Z,-3.86
2022-12-18T06:06:23.428Z,-3.89
2022-12-18T06:08:52.346Z,-3.92
2022-12-18T06:11:23.355Z,-3.98
2022-12-18T06:13:57.821Z,-4.00
2022-12-18T06:16:27.166Z,-4.07
2022-12-18T06:19:03.557Z,-4.16
2022-12-18T06:21:32.734Z,-4.25
2022-12-18T06:24:01.881Z,-4.35
2022-12-18T06:26:29.729Z,-4.43
2022-12-18T06:28:57.863Z,-4.50
2022-12-18T06:31:27.229Z,-4.56
2022-12-18T06:33:55.238Z,-4.64
2022-12-18T06:36:23.309Z,-4.71
2022-12-18T06:38:51.256Z,-4.79
2022-12-18T06:41:21.476Z,-4.89
2022-12-18T06:43:49.552Z,-4.98
2022-12-18T06:46:17.516Z,-5.07
2022-12-18T06:48:49.642Z,-5.19
2022-12-18T06:51:24.821Z,-5.28
2022-12-18T06:53:52.900Z,-5.35
2022-12-18T06:56:20.868Z,-5.39
2022-12-18T06:58:51.942Z,-5.45
2022-12-18T07:01:20.069Z,-5.53
2022-12-18T07:03:48.358Z,-5.59
2022-12-18T07:06:20.901Z,-5.63
2022-12-18T07:08:49.633Z,-5.67
2022-12-18T07:11:19.100Z,-5.70
2022-12-18T07:13:47.437Z,-5.72
2022-12-18T07:16:24.209Z,-5.74
2022-12-18T07:19:00.200Z,-5.73
2022-12-18T07:21:28.243Z,-5.73
2022-12-18T07:23:56.112Z,-5.73
2022-12-18T07:26:24.181Z,-5.71
2022-12-18T07:28:56.194Z,-5.66
2022-12-18T07:31:25.093Z,-5.62
2022-12-18T07:33:53.804Z,-5.58
2022-12-18T07:36:21.799Z,-5.56
2022-12-18T07:38:50.852Z,-5.55
2022-12-18T07:41:19.819Z,-5.53
2022-12-18T07:43:48.222Z,-5.49
2022-12-18T07:46:17.625Z,-5.46
2022-12-18T07:48:49.426Z,-5.45
2022-12-18T07:51:19.475Z,-5.38
2022-12-18T07:53:52.122Z,-5.33
2022-12-18T07:56:30.450Z,-5.25
2022-12-18T07:59:00.183Z,-5.18
2022-12-18T08:01:28.853Z,-5.10
2022-12-18T08:03:58.266Z,-4.99
2022-12-18T08:06:26.783Z,-4.90
2022-12-18T08:08:56.080Z,-4.83
2022-12-18T08:11:26.141Z,-4.77
2022-12-18T08:13:54.665Z,-4.68
2022-12-18T08:16:23.466Z,-4.59
2022-12-18T08:18:53.407Z,-4.50
2022-12-18T08:21:27.616Z,-4.43
2022-12-18T08:23:57.872Z,-4.38
2022-12-18T08:26:28.016Z,-4.35
2022-12-18T08:28:57.479Z,-4.30
2022-12-18T08:31:26.936Z,-4.25
2022-12-18T08:33:56.085Z,-4.22
2022-12-18T08:36:25.555Z,-4.21
2022-12-18T08:38:54.803Z,-4.16
2022-12-18T08:41:22.871Z,-4.12
2022-12-18T08:44:09.584Z,-4.03
2022-12-18T08:46:43.218Z,-3.86
2022-12-18T08:49:12.533Z,-3.77
2022-12-18T08:51:41.128Z,-3.70
2022-12-18T08:54:17.208Z,-3.64
2022-12-18T08:56:45.074Z,-3.56
2022-12-18T08:59:19.202Z,-3.52
2022-12-18T09:01:48.672Z,-3.49
2022-12-18T09:04:16.839Z,-3.44
2022-12-18T09:06:44.771Z,-3.38
2022-12-18T09:09:13.480Z,-3.34
2022-12-18T09:11:41.467Z,-3.26
2022-12-18T09:14:11.020Z,-3.17
2022-12-18T09:16:39.058Z,-3.10
2022-12-18T09:19:07.359Z,-3.06
2022-12-18T09:21:37.250Z,-2.99
2022-12-18T09:24:08.858Z,-2.93
2022-12-18T09:26:37.961Z,-2.88
2022-12-18T09:29:08.170Z,-2.79
2022-12-18T09:31:37.476Z,-2.73
2022-12-18T09:34:05.928Z,-2.67
2022-12-18T09:36:34.090Z,-2.63
2022-12-18T09:39:08.589Z,-2.59
2022-12-18T09:41:45.184Z,-2.57
2022-12-18T09:44:44.436Z,-2.55
2022-12-18T09:47:19.956Z,-2.50
2022-12-18T09:49:53.955Z,-2.45
2022-12-18T09:52:53.984Z,-2.41
2022-12-18T09:55:35.133Z,-2.35
2022-12-18T09:58:16.573Z,-2.28
2022-12-18T10:00:44.949Z,-2.20
2022-12-18T10:03:16.344Z,-2.08
2022-12-18T10:05:53.860Z,-1.95
2022-12-18T10:08:31.269Z,-1.88
2022-12-18T10:11:13.225Z,-1.83
2022-12-18T10:13:57.517Z,-1.75
2022-12-18T10:16:34.994Z,-1.73
2022-12-18T10:19:36.931Z,-1.71
2022-12-18T10:22:16.890Z,-1.66
2022-12-18T10:25:22.466Z,-1.58
2022-12-18T10:27:56.321Z,-1.54
2022-12-18T10:30:26.284Z,-1.48
2022-12-18T10:32:57.490Z,-1.47
2022-12-18T10:35:27.830Z,-1.45
2022-12-18T10:38:01.942Z,-1.47
2022-12-18T10:40:30.453Z,-1.51
2022-12-18T10:43:06.295Z,-1.55
2022-12-18T10:45:34.535Z,-1.59
2022-12-18T10:48:02.550Z,-1.57
2022-12-18T10:53:28.497Z,-1.51
2022-12-18T10:56:00.038Z,-1.49
2022-12-18T10:58:28.003Z,-1.49
2022-12-18T11:01:11.259Z,-1.42
2022-12-18T11:04:00.416Z,-1.36
2022-12-18T11:06:33.587Z,-1.29
2022-12-18T11:09:12.204Z,-1.19
2022-12-18T11:11:40.771Z,-1.15
2022-12-18T11:14:35.021Z,-1.12
2022-12-18T11:17:25.230Z,-1.08
2022-12-18T11:19:59.102Z,-1.03
2022-12-18T11:22:34.330Z,-0.99
2022-12-18T11:25:33.412Z,-1.02
2022-12-18T11:28:05.668Z,-1.00
2022-12-18T11:30:37.469Z,-1.00
2022-12-18T11:33:14.261Z,-0.98
2022-12-18T11:35:56.949Z,-0.96
2022-12-18T11:38:27.796Z,-0.93
2022-12-18T11:41:02.112Z,-0.91
2022-12-18T11:43:41.897Z,-0.90
2022-12-18T11:46:19.602Z,-0.92
2022-12-18T11:48:58.230Z,-0.93
2022-12-18T11:52:17.107Z,-0.96
2022-12-18T11:54:45.321Z,-0.99
2022-12-18T11:57:46.417Z,-0.98
2022-12-18T12:00:20.866Z,-0.90
2022-12-18T12:03:19.951Z,-0.85
2022-12-18T12:06:02.265Z,-0.81
2022-12-18T12:08:52.143Z,-0.83
2022-12-18T12:11:23.615Z,-0.82
2022-12-18T12:14:11.977Z,-0.83
2022-12-18T12:17:07.331Z,-0.83
2022-12-18T12:19:58.407Z,-0.83
2022-12-18T12:22:48.873Z,-0.80
2022-12-18T12:25:36.521Z,-0.80
2022-12-18T12:28:24.211Z,-0.84
2022-12-18T12:31:30.541Z,-0.82
2022-12-18T12:34:16.543Z,-0.79
2022-12-18T12:36:47.303Z,-0.78
2022-12-18T12:39:19.427Z,-0.78
2022-12-18T12:42:06.736Z,-0.78
2022-12-18T12:44:43.766Z,-0.78
2022-12-18T12:47:20.245Z,-0.82
2022-12-18T12:52:51.672Z,-0.94
2022-12-18T12:55:23.755Z,-0.94
2022-12-18T12:57:55.327Z,-0.96
2022-12-18T13:00:25.226Z,-1.02
2022-12-18T13:03:11.938Z,-1.09
2022-12-18T13:05:47.165Z,-1.12
2022-12-18T13:08:28.698Z,-1.13
2022-12-18T13:11:20.268Z,-1.17
2022-12-18T13:13:57.048Z,-1.17
2022-12-18T13:16:28.260Z,-1.19
2022-12-18T13:18:59.636Z,-1.22
2022-12-18T13:21:34.274Z,-1.25
2022-12-18T13:24:23.612Z,-1.33
2022-12-18T13:26:51.677Z,-1.39
2022-12-18T13:29:55.137Z,-1.49
2022-12-18T13:32:25.511Z,-1.60
2022-12-18T13:35:19.125Z,-1.67
2022-12-18T13:37:53.969Z,-1.71
2022-12-18T13:40:40.478Z,-1.74
2022-12-18T13:43:20.341Z,-1.76
2022-12-18T13:45:56.629Z,-1.80
2022-12-18T13:48:26.815Z,-1.93
2022-12-18T13:50:59.832Z,-2.02
2022-12-18T13:53:33.560Z,-2.08
2022-12-18T13:56:03.471Z,-2.14
2022-12-18T13:58:31.541Z,-2.22
2022-12-18T14:01:00.334Z,-2.33
2022-12-18T14:03:30.432Z,-2.42
2022-12-18T14:06:08.857Z,-2.54
2022-12-18T14:08:41.170Z,-2.62
2022-12-18T14:11:22.866Z,-2.70
2022-12-18T14:13:51.580Z,-2.79
2022-12-18T14:16:19.780Z,-2.86
2022-12-18T14:18:57.122Z,-2.94
2022-12-18T14:21:33.535Z,-3.04
2022-12-18T14:24:15.160Z,-3.12
2022-12-18T14:26:45.971Z,-3.21
2022-12-18T14:29:19.840Z,-3.32
2022-12-18T14:32:20.054Z,-3.45
2022-12-18T14:34:50.997Z,-3.61
2022-12-18T14:37:23.728Z,-3.73
2022-12-18T14:40:07.165Z,-3.84
2022-12-18T14:42:38.747Z,-3.97
2022-12-18T14:45:43.121Z,-4.07
2022-12-18T14:48:23.623Z,-4.16
2022-12-18T14:51:15.501Z,-4.30
2022-12-18T14:54:05.350Z,-4.40
2022-12-18T14:56:38.004Z,-4.49
2022-12-18T14:59:24.853Z,-4.56
2022-12-18T15:02:12.285Z,-4.64
2022-12-18T15:04:44.009Z,-4.74
2022-12-18T15:07:17.400Z,-4.81
2022-12-18T15:10:16.022Z,-4.87
2022-12-18T15:12:45.180Z,-4.94
2022-12-18T15:15:37.923Z,-5.01
2022-12-18T15:18:08.934Z,-5.09
2022-12-18T15:20:59.993Z,-5.15
2022-12-18T15:23:37.413Z,-5.22
2022-12-18T15:26:14.217Z,-5.31
2022-12-18T15:28:49.844Z,-5.37
2022-12-18T15:31:17.765Z,-5.43
2022-12-18T15:34:04.144Z,-5.49
2022-12-18T15:36:32.328Z,-5.58
2022-12-18T15:39:05.126Z,-5.64
2022-12-18T15:41:36.737Z,-5.70
2022-12-18T15:44:24.699Z,-5.73
2022-12-18T15:46:52.664Z,-5.77
2022-12-18T15:49:20.774Z,-5.80
2022-12-18T15:51:54.896Z,-5.84
2022-12-18T15:54:43.142Z,-5.87
2022-12-18T15:57:24.288Z,-5.93
2022-12-18T15:59:54.268Z,-6.00
2022-12-18T16:02:23.850Z,-6.07
2022-12-18T16:04:53.309Z,-6.14
2022-12-18T16:07:24.889Z,-6.16
2022-12-18T16:09:53.620Z,-6.19
2022-12-18T16:12:25.079Z,-6.19
2022-12-18T16:14:53.207Z,-6.22
2022-12-18T16:17:21.485Z,-6.26
2022-12-18T16:19:49.502Z,-6.28
2022-12-18T16:22:27.717Z,-6.32
2022-12-18T16:24:57.371Z,-6.35
2022-12-18T16:27:26.074Z,-6.38
2022-12-18T16:29:54.151Z,-6.38
2022-12-18T16:32:23.328Z,-6.40
2022-12-18T16:34:51.794Z,-6.44
2022-12-18T16:37:20.116Z,-6.50
2022-12-18T16:39:48.000Z,-6.55
2022-12-18T16:42:21.109Z,-6.59
2022-12-18T16:44:50.674Z,-6.64
2022-12-18T16:47:20.006Z,-6.70
2022-12-18T16:49:51.685Z,-6.74
2022-12-18T16:52:20.720Z,-6.79
2022-12-18T16:54:49.056Z,-6.84
2022-12-18T16:57:19.474Z,-6.87
2022-12-18T16:59:49.194Z,-6.89
2022-12-18T17:02:24.448Z,-6.89
2022-12-18T17:04:57.329Z,-6.94
2022-12-18T17:07:27.054Z,-6.98
2022-12-18T17:09:55.486Z,-7.01
2022-12-18T17:12:24.021Z,-7.01
2022-12-18T17:14:51.902Z,-7.02
2022-12-18T17:17:22.268Z,-7.05
2022-12-18T17:19:52.417Z,-7.08
2022-12-18T17:22:23.281Z,-7.10
2022-12-18T17:24:51.433Z,-7.14
2022-12-18T17:27:19.411Z,-7.17
2022-12-18T17:29:48.824Z,-7.21
2022-12-18T17:32:17.818Z,-7.24
2022-12-18T17:34:45.906Z,-7.26
2022-12-18T17:37:14.460Z,-7.27
2022-12-18T17:39:42.473Z,-7.29
2022-12-18T17:42:14.972Z,-7.31
2022-12-18T17:44:44.834Z,-7.31
2022-12-18T17:47:13.624Z,-7.34
2022-12-18T17:49:41.957Z,-7.38
2022-12-18T17:52:10.407Z,-7.40
2022-12-18T17:54:41.432Z,-7.40
2022-12-18T17:57:10.323Z,-7.42
2022-12-18T17:59:38.256Z,-7.41
2022-12-18T18:02:06.243Z,-7.39
2022-12-18T18:04:34.580Z,-7.43
2022-12-18T18:07:03.085Z,-7.45
2022-12-18T18:09:31.230Z,-7.43
2022-12-18T18:12:17.797Z,-7.41
2022-12-18T18:14:45.951Z,-7.40
2022-12-18T18:17:14.052Z,-7.41
2022-12-18T18:19:42.208Z,-7.45
2022-12-18T18:22:12.176Z,-7.47
2022-12-18T18:24:43.382Z,-7.50
2022-12-18T18:27:11.247Z,-7.51
2022-12-18T18:29:40.122Z,-7.52
2022-12-18T18:32:08.073Z,-7.53
2022-12-18T18:34:36.180Z,-7.56
2022-12-18T18:37:04.478Z,-7.59
2022-12-18T18:39:32.717Z,-7.59
2022-12-18T18:42:00.972Z,-7.56
2022-12-18T18:44:30.603Z,-7.52
2022-12-18T18:46:59.825Z,-7.51
2022-12-18T18:49:29.918Z,-7.52
2022-12-18T18:51:59.352Z,-7.53
2022-12-18T18:54:28.031Z,-7.50
2022-12-18T18:59:47.156Z,-7.47
2022-12-18T19:02:16.555Z,-7.49
2022-12-18T19:04:45.755Z,-7.55
2022-12-18T19:07:29.463Z,-7.58
2022-12-18T19:10:04.197Z,-7.59
2022-12-18T19:12:53.017Z,-7.60
2022-12-18T19:15:22.990Z,-7.63
2022-12-18T19:17:51.053Z,-7.65
2022-12-18T19:20:19.333Z,-7.67
2022-12-18T19:22:55.380Z,-7.69
2022-12-18T19:25:40.722Z,-7.70
2022-12-18T19:28:21.243Z,-7.72
2022-12-18T19:30:59.411Z,-7.74
2022-12-18T19:33:45.952Z,-7.75
2022-12-18T19:36:15.998Z,-7.74
2022-12-18T19:38:45.389Z,-7.73
2022-12-18T19:41:14.783Z,-7.74
2022-12-18T19:43:43.532Z,-7.75
2022-12-18T19:46:15.457Z,-7.73
2022-12-18T19:48:45.061Z,-7.73
2022-12-18T19:51:19.733Z,-7.72
2022-12-18T19:53:48.472Z,-7.70
2022-12-18T19:56:20.021Z,-7.67
2022-12-18T19:58:48.540Z,-7.67
2022-12-18T20:01:19.165Z,-7.67
2022-12-18T20:03:51.529Z,-7.64
2022-12-18T20:06:26.244Z,-7.65
2022-12-18T20:08:59.450Z,-7.64
2022-12-18T20:11:36.379Z,-7.59
2022-12-18T20:14:11.876Z,-7.54
2022-12-18T20:16:40.648Z,-7.51
2022-12-18T20:19:10.963Z,-7.48
2022-12-18T20:21:39.158Z,-7.41
2022-12-18T20:24:10.401Z,-7.37
2022-12-18T20:26:38.700Z,-7.35
2022-12-18T20:29:06.877Z,-7.32
2022-12-18T20:31:34.778Z,-7.31
2022-12-18T20:34:03.657Z,-7.30
2022-12-18T20:36:35.267Z,-7.29
2022-12-18T20:39:06.534Z,-7.34
2022-12-18T20:41:38.164Z,-7.38
2022-12-18T20:44:23.246Z,-7.35
2022-12-18T20:46:57.700Z,-7.30
2022-12-18T20:49:26.758Z,-7.25
2022-12-18T20:51:56.465Z,-7.21
2022-12-18T20:54:26.956Z,-7.19
2022-12-18T20:56:56.350Z,-7.14
2022-12-18T20:59:25.721Z,-7.10
2022-12-18T21:01:53.977Z,-7.06
2022-12-18T21:04:22.835Z,-7.01
2022-12-18T21:06:55.689Z,-6.94
2022-12-18T21:09:30.348Z,-6.88
2022-12-18T21:12:33.396Z,-6.84
2022-12-18T21:15:09.874Z,-6.80
2022-12-18T21:17:44.075Z,-6.78
2022-12-18T21:20:17.513Z,-6.76
2022-12-18T21:22:49.164Z,-6.76
2022-12-18T21:25:17.197Z,-6.73
2022-12-18T21:27:45.103Z,-6.66
2022-12-18T21:30:15.021Z,-6.60
2022-12-18T21:32:43.169Z,-6.55
2022-12-18T21:35:11.208Z,-6.51
2022-12-18T21:37:39.194Z,-6.45
2022-12-18T21:40:07.945Z,-6.42
2022-12-18T21:42:54.349Z,-6.40
2022-12-18T21:45:22.292Z,-6.36
2022-12-18T21:47:50.181Z,-6.32
2022-12-18T21:50:18.224Z,-6.28
2022-12-18T21:52:46.092Z,-6.24
2022-12-18T21:55:14.080Z,-6.20
2022-12-18T21:57:41.945Z,-6.17
2022-12-18T22:00:18.213Z,-6.14
2022-12-18T22:03:05.652Z,-6.14
2022-12-18T22:05:37.262Z,-6.11
2022-12-18T22:08:06.697Z,-6.06
2022-12-18T22:10:35.094Z,-6.03
2022-12-18T22:13:07.628Z,-6.01
2022-12-18T22:15:35.653Z,-5.97
2022-12-18T22:18:03.859Z,-5.93
2022-12-18T22:20:31.756Z,-5.89
2022-12-18T22:23:05.669Z,-5.84
2022-12-18T22:25:35.796Z,-5.79
2022-12-18T22:28:26.364Z,-5.77
2022-12-18T22:30:57.718Z,-5.79
2022-12-18T22:33:27.776Z,-5.82
2022-12-18T22:35:55.625Z,-5.86
2022-12-18T22:38:23.502Z,-5.85
2022-12-18T22:40:51.390Z,-5.81
2022-12-18T22:43:19.390Z,-5.75
2022-12-18T22:45:49.022Z,-5.68
2022-12-18T22:48:17.131Z,-5.63
2022-12-18T22:50:45.046Z,-5.59
2022-12-18T22:53:13.017Z,-5.56
2022-12-18T22:55:40.934Z,-5.54
2022-12-18T22:58:08.811Z,-5.54
2022-12-18T23:00:36.798Z,-5.53
2022-12-18T23:03:05.012Z,-5.55
2022-12-18T23:05:35.408Z,-5.57
2022-12-18T23:08:03.494Z,-5.50
2022-12-18T23:10:31.413Z,-5.46
2022-12-18T23:12:59.335Z,-5.41
2022-12-18T23:15:28.406Z,-5.36
2022-12-18T23:17:59.726Z,-5.30
2022-12-18T23:20:27.992Z,-5.24
2022-12-18T23:22:55.964Z,-5.18
2022-12-18T23:25:23.873Z,-5.12
2022-12-18T23:27:51.878Z,-5.09
2022-12-18T23:30:19.870Z,-5.04
2022-12-18T23:32:48.328Z,-5.00
2022-12-18T23:35:17.363Z,-5.00
2022-12-18T23:37:58.745Z,-4.96
2022-12-18T23:40:29.357Z,-4.82
2022-12-18T23:42:59.083Z,-4.60
2022-12-18T23:45:27.057Z,-4.36
2022-12-18T23:47:54.974Z,-4.12
2022-12-18T23:50:28.950Z,-3.92
2022-12-18T23:53:03.260Z,-3.74
2022-12-18T23:55:38.835Z,-3.56
2022-12-18T23:58:08.541Z,-3.41
